sensor_id;sensor_type;location;lat;lon;timestamp;P1;durP1;ratioP1;P2;durP2;ratioP2
24891;SDS011;12954;50.688;10.908;2022-12-18T00:00:06;12.30;;;8.07;;
24891;SDS011;12954;50.688;10.908;2022-12-18T00:02:37;12.23;;;7.07;;
24891;SDS011;12954;50.688;10.908;2022-12-18T00:05:06;11.65;;;7.00;;
24891;SDS011;12954;50.688;10.908;2022-12-18T00:07:35;15.57;;;8.57;;
24891;SDS011;12954;50.688;10.908;2022-12-18T00:10:05;13.15;;;7.78;;
24891;SDS011;12954;50.688;10.908;2022-12-18T00:12:34;16.00;;;9.43;;
24891;SDS011;12954;50.688;10.908;2022-12-18T00:15:03;16.42;;;8.10;;
24891;SDS011;12954;50.688;10.908;2022-12-18T00:17:32;14.65;;;8.05;;
24891;SDS011;12954;50.688;10.908;2022-12-18T00:20:02;19.38;;;8.32;;
24891;SDS011;12954;50.688;10.908;2022-12-18T00:22:31;18.20;;;9.15;;
24891;SDS011;12954;50.688;10.908;2022-12-18T00:24:59;14.60;;;8.55;;
24891;SDS011;12954;50.688;10.908;2022-12-18T00:27:28;17.60;;;8.82;;
24891;SDS011;12954;50.688;10.908;2022-12-18T00:29:57;16.77;;;9.73;;
24891;SDS011;12954;50.688;10.908;2022-12-18T00:32:25;16.30;;;9.45;;
24891;SDS011;12954;50.688;10.908;2022-12-18T00:34:54;17.77;;;9.10;;
24891;SDS011;12954;50.688;10.908;2022-12-18T00:37:23;17.20;;;9.32;;
24891;SDS011;12954;50.688;10.908;2022-12-18T00:39:52;16.13;;;8.80;;
24891;SDS011;12954;50.688;10.908;2022-12-18T00:42:20;16.98;;;8.35;;
24891;SDS011;12954;50.688;10.908;2022-12-18T00:45:06;13.73;;;8.05;;
24891;SDS011;12954;50.688;10.908;2022-12-18T00:47:38;13.45;;;7.75;;
24891;SDS011;12954;50.688;10.908;2022-12-18T00:50:07;13.35;;;6.43;;
24891;SDS011;12954;50.688;10.908;2022-12-18T00:52:38;14.55;;;7.22;;
24891;SDS011;12954;50.688;10.908;2022-12-18T00:55:07;9.63;;;5.63;;
24891;SDS011;12954;50.688;10.908;2022-12-18T00:57:35;11.60;;;6.70;;
24891;SDS011;12954;50.688;10.908;2022-12-18T01:00:06;10.82;;;5.88;;
24891;SDS011;12954;50.688;10.908;2022-12-18T01:02:36;11.45;;;5.65;;
24891;SDS011;12954;50.688;10.908;2022-12-18T01:05:05;15.35;;;7.72;;
24891;SDS011;12954;50.688;10.908;2022-12-18T01:07:34;15.65;;;7.68;;
24891;SDS011;12954;50.688;10.908;2022-12-18T01:10:05;14.30;;;8.32;;
24891;SDS011;12954;50.688;10.908;2022-12-18T01:12:35;13.88;;;8.05;;
24891;SDS011;12954;50.688;10.908;2022-12-18T01:15:04;12.05;;;6.43;;
24891;SDS011;12954;50.688;10.908;2022-12-18T01:17:35;14.45;;;7.72;;
24891;SDS011;12954;50.688;10.908;2022-12-18T01:20:04;11.13;;;5.97;;
24891;SDS011;12954;50.688;10.908;2022-12-18T01:22:33;12.23;;;7.45;;
24891;SDS011;12954;50.688;10.908;2022-12-18T01:25:04;13.50;;;6.90;;
24891;SDS011;12954;50.688;10.908;2022-12-18T01:27:33;9.02;;;5.82;;
24891;SDS011;12954;50.688;10.908;2022-12-18T01:30:02;9.57;;;4.80;;
24891;SDS011;12954;50.688;10.908;2022-12-18T01:32:31;8.80;;;4.93;;
24891;SDS011;12954;50.688;10.908;2022-12-18T01:35:01;9.35;;;4.95;;
24891;SDS011;12954;50.688;10.908;2022-12-18T01:37:29;8.48;;;4.93;;
24891;SDS011;12954;50.688;10.908;2022-12-18T01:39:58;10.93;;;4.82;;
24891;SDS011;12954;50.688;10.908;2022-12-18T01:42:28;12.07;;;5.72;;
24891;SDS011;12954;50.688;10.908;2022-12-18T01:44:58;13.10;;;6.50;;
24891;SDS011;12954;50.688;10.908;2022-12-18T01:47:30;10.93;;;5.32;;
24891;SDS011;12954;50.688;10.908;2022-12-18T01:50:03;9.20;;;5.05;;
24891;SDS011;12954;50.688;10.908;2022-12-18T01:52:35;11.23;;;4.30;;
24891;SDS011;12954;50.688;10.908;2022-12-18T01:55:05;11.43;;;4.97;;
24891;SDS011;12954;50.688;10.908;2022-12-18T01:57:37;10.63;;;5.15;;
24891;SDS011;12954;50.688;10.908;2022-12-18T02:00:07;13.05;;;5.68;;
24891;SDS011;12954;50.688;10.908;2022-12-18T02:02:37;10.73;;;5.30;;
24891;SDS011;12954;50.688;10.908;2022-12-18T02:05:07;10.32;;;4.40;;
24891;SDS011;12954;50.688;10.908;2022-12-18T02:07:39;10.43;;;4.78;;
24891;SDS011;12954;50.688;10.908;2022-12-18T02:10:17;7.22;;;3.42;;
24891;SDS011;12954;50.688;10.908;2022-12-18T02:12:55;5.88;;;3.17;;
24891;SDS011;12954;50.688;10.908;2022-12-18T02:15:32;7.72;;;3.58;;
24891;SDS011;12954;50.688;10.908;2022-12-18T02:18:07;7.63;;;3.30;;
24891;SDS011;12954;50.688;10.908;2022-12-18T02:20:42;5.50;;;2.60;;
24891;SDS011;12954;50.688;10.908;2022-12-18T02:23:19;5.07;;;2.50;;
24891;SDS011;12954;50.688;10.908;2022-12-18T02:26:09;5.07;;;2.80;;
24891;SDS011;12954;50.688;10.908;2022-12-18T02:28:49;4.07;;;2.40;;
24891;SDS011;12954;50.688;10.908;2022-12-18T02:31:23;5.65;;;1.92;;
24891;SDS011;12954;50.688;10.908;2022-12-18T02:33:54;7.20;;;2.75;;
24891;SDS011;12954;50.688;10.908;2022-12-18T02:36:25;6.90;;;3.65;;
24891;SDS011;12954;50.688;10.908;2022-12-18T02:38:56;7.63;;;2.80;;
24891;SDS011;12954;50.688;10.908;2022-12-18T02:41:28;3.97;;;2.47;;
24891;SDS011;12954;50.688;10.908;2022-12-18T02:44:00;5.03;;;2.60;;
24891;SDS011;12954;50.688;10.908;2022-12-18T02:46:35;5.30;;;3.13;;
24891;SDS011;12954;50.688;10.908;2022-12-18T02:49:08;6.80;;;3.00;;
24891;SDS011;12954;50.688;10.908;2022-12-18T02:51:48;7.47;;;3.28;;
24891;SDS011;12954;50.688;10.908;2022-12-18T02:54:23;5.20;;;2.40;;
24891;SDS011;12954;50.688;10.908;2022-12-18T02:57:08;5.15;;;2.70;;
24891;SDS011;12954;50.688;10.908;2022-12-18T02:59:45;6.97;;;3.30;;
24891;SDS011;12954;50.688;10.908;2022-12-18T03:02:21;9.50;;;5.50;;
24891;SDS011;12954;50.688;10.908;2022-12-18T03:04:59;8.65;;;4.65;;
24891;SDS011;12954;50.688;10.908;2022-12-18T03:07:34;9.82;;;4.65;;
24891;SDS011;12954;50.688;10.908;2022-12-18T03:10:07;9.50;;;4.07;;
24891;SDS011;12954;50.688;10.908;2022-12-18T03:12:42;5.03;;;2.63;;
24891;SDS011;12954;50.688;10.908;2022-12-18T03:15:16;5.40;;;2.90;;
24891;SDS011;12954;50.688;10.908;2022-12-18T03:17:49;7.82;;;3.67;;
24891;SDS011;12954;50.688;10.908;2022-12-18T03:20:28;5.35;;;2.95;;
24891;SDS011;12954;50.688;10.908;2022-12-18T03:23:02;5.00;;;2.85;;
24891;SDS011;12954;50.688;10.908;2022-12-18T03:25:36;5.40;;;2.50;;
24891;SDS011;12954;50.688;10.908;2022-12-18T03:28:10;4.33;;;2.00;;
24891;SDS011;12954;50.688;10.908;2022-12-18T03:30:42;4.53;;;2.30;;
24891;SDS011;12954;50.688;10.908;2022-12-18T03:33:13;4.22;;;2.67;;
24891;SDS011;12954;50.688;10.908;2022-12-18T03:35:47;4.05;;;2.25;;
24891;SDS011;12954;50.688;10.908;2022-12-18T03:38:16;4.13;;;2.28;;
24891;SDS011;12954;50.688;10.908;2022-12-18T03:40:46;4.10;;;2.13;;
24891;SDS011;12954;50.688;10.908;2022-12-18T03:43:25;4.57;;;2.25;;
24891;SDS011;12954;50.688;10.908;2022-12-18T03:46:02;3.45;;;1.88;;
24891;SDS011;12954;50.688;10.908;2022-12-18T03:48:37;4.25;;;1.67;;
24891;SDS011;12954;50.688;10.908;2022-12-18T03:51:10;3.63;;;1.63;;
24891;SDS011;12954;50.688;10.908;2022-12-18T03:53:46;4.70;;;1.63;;
24891;SDS011;12954;50.688;10.908;2022-12-18T03:56:20;3.72;;;1.70;;
24891;SDS011;12954;50.688;10.908;2022-12-18T03:58:52;3.85;;;1.77;;
24891;SDS011;12954;50.688;10.908;2022-12-18T04:01:23;3.90;;;1.80;;
24891;SDS011;12954;50.688;10.908;2022-12-18T04:03:56;5.45;;;1.85;;
24891;SDS011;12954;50.688;10.908;2022-12-18T04:06:28;4.07;;;1.80;;
24891;SDS011;12954;50.688;10.908;2022-12-18T04:08:57;4.57;;;2.13;;
24891;SDS011;12954;50.688;10.908;2022-12-18T04:11:26;5.72;;;2.13;;
24891;SDS011;12954;50.688;10.908;2022-12-18T04:13:57;5.68;;;2.33;;
24891;SDS011;12954;50.688;10.908;2022-12-18T04:16:31;3.67;;;1.90;;
24891;SDS011;12954;50.688;10.908;2022-12-18T04:18:59;4.90;;;1.75;;
24891;SDS011;12954;50.688;10.908;2022-12-18T04:21:28;4.70;;;2.38;;
24891;SDS011;12954;50.688;10.908;2022-12-18T04:23:56;4.10;;;1.83;;
24891;SDS011;12954;50.688;10.908;2022-12-18T04:26:25;4.53;;;2.30;;
24891;SDS011;12954;50.688;10.908;2022-12-18T04:28:53;4.78;;;2.28;;
24891;SDS011;12954;50.688;10.908;2022-12-18T04:31:23;4.90;;;1.80;;
24891;SDS011;12954;50.688;10.908;2022-12-18T04:33:52;26.17;;;9.95;;
24891;SDS011;12954;50.688;10.908;2022-12-18T04:36:20;88.68;;;34.30;;
24891;SDS011;12954;50.688;10.908;2022-12-18T04:38:48;106.65;;;39.88;;
24891;SDS011;12954;50.688;10.908;2022-12-18T04:41:17;147.32;;;54.45;;
24891;SDS011;12954;50.688;10.908;2022-12-18T04:43:45;121.45;;;48.00;;
24891;SDS011;12954;50.688;10.908;2022-12-18T04:46:14;84.07;;;31.83;;
24891;SDS011;12954;50.688;10.908;2022-12-18T04:48:44;73.50;;;28.48;;
24891;SDS011;12954;50.688;10.908;2022-12-18T04:51:14;74.68;;;28.88;;
24891;SDS011;12954;50.688;10.908;2022-12-18T04:53:50;36.00;;;14.45;;
24891;SDS011;12954;50.688;10.908;2022-12-18T04:56:18;33.78;;;14.18;;
24891;SDS011;12954;50.688;10.908;2022-12-18T04:58:47;36.05;;;15.90;;
24891;SDS011;12954;50.688;10.908;2022-12-18T05:01:16;34.60;;;14.02;;
24891;SDS011;12954;50.688;10.908;2022-12-18T05:03:47;18.52;;;8.25;;
24891;SDS011;12954;50.688;10.908;2022-12-18T05:06:16;20.15;;;7.53;;
24891;SDS011;12954;50.688;10.908;2022-12-18T05:08:44;21.63;;;8.63;;
24891;SDS011;12954;50.688;10.908;2022-12-18T05:11:13;16.80;;;7.07;;
24891;SDS011;12954;50.688;10.908;2022-12-18T05:13:43;12.15;;;5.95;;
24891;SDS011;12954;50.688;10.908;2022-12-18T05:16:13;11.07;;;4.47;;
24891;SDS011;12954;50.688;10.908;2022-12-18T05:18:42;14.60;;;6.53;;
24891;SDS011;12954;50.688;10.908;2022-12-18T05:21:13;12.95;;;6.13;;
24891;SDS011;12954;50.688;10.908;2022-12-18T05:23:41;11.00;;;4.30;;
24891;SDS011;12954;50.688;10.908;2022-12-18T05:26:10;4.97;;;2.70;;
24891;SDS011;12954;50.688;10.908;2022-12-18T05:28:43;6.47;;;2.92;;
24891;SDS011;12954;50.688;10.908;2022-12-18T05:31:12;7.55;;;3.05;;
24891;SDS011;12954;50.688;10.908;2022-12-18T05:33:41;5.07;;;2.17;;
24891;SDS011;12954;50.688;10.908;2022-12-18T05:36:10;7.40;;;2.17;;
24891;SDS011;12954;50.688;10.908;2022-12-18T05:38:40;5.72;;;1.92;;
24891;SDS011;12954;50.688;10.908;2022-12-18T05:41:09;4.05;;;1.98;;
24891;SDS011;12954;50.688;10.908;2022-12-18T05:43:38;4.97;;;2.25;;
24891;SDS011;12954;50.688;10.908;2022-12-18T05:46:08;3.42;;;1.40;;
24891;SDS011;12954;50.688;10.908;2022-12-18T05:48:39;5.00;;;1.95;;
24891;SDS011;12954;50.688;10.908;2022-12-18T05:51:09;4.25;;;1.15;;
24891;SDS011;12954;50.688;10.908;2022-12-18T05:53:40;2.67;;;1.30;;
24891;SDS011;12954;50.688;10.908;2022-12-18T05:56:12;3.08;;;1.48;;
24891;SDS011;12954;50.688;10.908;2022-12-18T05:58:42;2.00;;;1.02;;
24891;SDS011;12954;50.688;10.908;2022-12-18T06:01:12;2.58;;;1.17;;
24891;SDS011;12954;50.688;10.908;2022-12-18T06:03:42;3.05;;;1.10;;
24891;SDS011;12954;50.688;10.908;2022-12-18T06:06:15;4.63;;;1.10;;
24891;SDS011;12954;50.688;10.908;2022-12-18T06:08:46;1.30;;;0.80;;
24891;SDS011;12954;50.688;10.908;2022-12-18T06:11:16;1.40;;;0.65;;
24891;SDS011;12954;50.688;10.908;2022-12-18T06:13:46;4.35;;;1.52;;
24891;SDS011;12954;50.688;10.908;2022-12-18T06:16:23;2.28;;;1.10;;
24891;SDS011;12954;50.688;10.908;2022-12-18T06:18:52;1.52;;;0.70;;
24891;SDS011;12954;50.688;10.908;2022-12-18T06:21:21;2.70;;;0.95;;
24891;SDS011;12954;50.688;10.908;2022-12-18T06:23:51;2.03;;;1.10;;
24891;SDS011;12954;50.688;10.908;2022-12-18T06:26:19;1.98;;;1.00;;
24891;SDS011;12954;50.688;10.908;2022-12-18T06:28:53;2.58;;;0.75;;
24891;SDS011;12954;50.688;10.908;2022-12-18T06:31:22;2.13;;;0.73;;
24891;SDS011;12954;50.688;10.908;2022-12-18T06:33:51;1.60;;;0.85;;
24891;SDS011;12954;50.688;10.908;2022-12-18T06:36:19;3.75;;;1.50;;
24891;SDS011;12954;50.688;10.908;2022-12-18T06:38:48;0.70;;;0.55;;
24891;SDS011;12954;50.688;10.908;2022-12-18T06:41:19;1.70;;;0.60;;
24891;SDS011;12954;50.688;10.908;2022-12-18T06:43:48;3.30;;;0.75;;
24891;SDS011;12954;50.688;10.908;2022-12-18T06:46:23;1.20;;;0.52;;
24891;SDS011;12954;50.688;10.908;2022-12-18T06:48:52;2.65;;;0.75;;
24891;SDS011;12954;50.688;10.908;2022-12-18T06:51:20;1.02;;;0.65;;
24891;SDS011;12954;50.688;10.908;2022-12-18T06:53:50;2.55;;;0.60;;
24891;SDS011;12954;50.688;10.908;2022-12-18T06:56:20;2.55;;;0.90;;
24891;SDS011;12954;50.688;10.908;2022-12-18T06:58:49;1.92;;;0.85;;
24891;SDS011;12954;50.688;10.908;2022-12-18T07:01:18;3.05;;;1.13;;
24891;SDS011;12954;50.688;10.908;2022-12-18T07:03:47;2.97;;;1.23;;
24891;SDS011;12954;50.688;10.908;2022-12-18T07:06:21;1.88;;;1.10;;
24891;SDS011;12954;50.688;10.908;2022-12-18T07:08:50;4.03;;;1.80;;
24891;SDS011;12954;50.688;10.908;2022-12-18T07:11:21;2.40;;;1.40;;
24891;SDS011;12954;50.688;10.908;2022-12-18T07:13:49;2.50;;;1.25;;
24891;SDS011;12954;50.688;10.908;2022-12-18T07:16:18;3.85;;;2.10;;
24891;SDS011;12954;50.688;10.908;2022-12-18T07:18:51;7.07;;;2.95;;
24891;SDS011;12954;50.688;10.908;2022-12-18T07:21:19;2.58;;;1.63;;
24891;SDS011;12954;50.688;10.908;2022-12-18T07:23:49;3.30;;;1.95;;
24891;SDS011;12954;50.688;10.908;2022-12-18T07:26:18;3.42;;;1.60;;
24891;SDS011;12954;50.688;10.908;2022-12-18T07:28:50;2.33;;;1.60;;
24891;SDS011;12954;50.688;10.908;2022-12-18T07:31:22;3.10;;;1.50;;
24891;SDS011;12954;50.688;10.908;2022-12-18T07:33:51;3.50;;;1.65;;
24891;SDS011;12954;50.688;10.908;2022-12-18T07:36:20;2.95;;;1.67;;
24891;SDS011;12954;50.688;10.908;2022-12-18T07:38:51;4.00;;;2.15;;
24891;SDS011;12954;50.688;10.908;2022-12-18T07:41:21;3.33;;;2.33;;
24891;SDS011;12954;50.688;10.908;2022-12-18T07:43:49;3.30;;;1.77;;
24891;SDS011;12954;50.688;10.908;2022-12-18T07:46:18;4.53;;;2.35;;
24891;SDS011;12954;50.688;10.908;2022-12-18T07:48:47;4.82;;;2.50;;
24891;SDS011;12954;50.688;10.908;2022-12-18T07:51:16;4.15;;;2.00;;
24891;SDS011;12954;50.688;10.908;2022-12-18T07:53:45;2.95;;;1.73;;
24891;SDS011;12954;50.688;10.908;2022-12-18T07:56:17;2.53;;;1.38;;
24891;SDS011;12954;50.688;10.908;2022-12-18T07:58:58;3.67;;;1.73;;
24891;SDS011;12954;50.688;10.908;2022-12-18T08:01:29;4.32;;;1.70;;
24891;SDS011;12954;50.688;10.908;2022-12-18T08:03:58;3.95;;;1.50;;
24891;SDS011;12954;50.688;10.908;2022-12-18T08:06:26;4.65;;;2.33;;
24891;SDS011;12954;50.688;10.908;2022-12-18T08:08:55;5.20;;;2.63;;
24891;SDS011;12954;50.688;10.908;2022-12-18T08:11:25;5.72;;;2.35;;
24891;SDS011;12954;50.688;10.908;2022-12-18T08:13:54;12.18;;;5.90;;
24891;SDS011;12954;50.688;10.908;2022-12-18T08:16:24;37.50;;;15.63;;
24891;SDS011;12954;50.688;10.908;2022-12-18T08:18:53;37.75;;;15.07;;
24891;SDS011;12954;50.688;10.908;2022-12-18T08:21:23;28.35;;;11.90;;
24891;SDS011;12954;50.688;10.908;2022-12-18T08:23:53;14.63;;;6.88;;
24891;SDS011;12954;50.688;10.908;2022-12-18T08:26:24;29.90;;;13.70;;
24891;SDS011;12954;50.688;10.908;2022-12-18T08:28:53;30.27;;;13.25;;
24891;SDS011;12954;50.688;10.908;2022-12-18T08:31:22;35.85;;;15.73;;
24891;SDS011;12954;50.688;10.908;2022-12-18T08:33:53;11.75;;;6.43;;
24891;SDS011;12954;50.688;10.908;2022-12-18T08:36:23;16.05;;;8.32;;
24891;SDS011;12954;50.688;10.908;2022-12-18T08:38:53;16.65;;;9.50;;
24891;SDS011;12954;50.688;10.908;2022-12-18T08:41:22;13.35;;;8.02;;
24891;SDS011;12954;50.688;10.908;2022-12-18T08:43:50;12.75;;;6.20;;
24891;SDS011;12954;50.688;10.908;2022-12-18T08:46:38;16.05;;;8.60;;
24891;SDS011;12954;50.688;10.908;2022-12-18T08:49:08;58.20;;;25.85;;
24891;SDS011;12954;50.688;10.908;2022-12-18T08:51:38;23.15;;;12.05;;
24891;SDS011;12954;50.688;10.908;2022-12-18T08:54:07;29.73;;;15.18;;
24891;SDS011;12954;50.688;10.908;2022-12-18T08:56:38;15.13;;;9.23;;
24891;SDS011;12954;50.688;10.908;2022-12-18T08:59:08;19.73;;;11.75;;
24891;SDS011;12954;50.688;10.908;2022-12-18T09:01:46;12.45;;;7.25;;
24891;SDS011;12954;50.688;10.908;2022-12-18T09:04:16;12.35;;;6.75;;
24891;SDS011;12954;50.688;10.908;2022-12-18T09:06:44;9.35;;;5.53;;
24891;SDS011;12954;50.688;10.908;2022-12-18T09:09:14;12.48;;;7.13;;
24891;SDS011;12954;50.688;10.908;2022-12-18T09:11:42;17.65;;;10.05;;
24891;SDS011;12954;50.688;10.908;2022-12-18T09:14:11;8.30;;;5.07;;
24891;SDS011;12954;50.688;10.908;2022-12-18T09:16:39;6.68;;;3.85;;
24891;SDS011;12954;50.688;10.908;2022-12-18T09:19:09;7.22;;;3.22;;
24891;SDS011;12954;50.688;10.908;2022-12-18T09:21:38;5.43;;;3.28;;
24891;SDS011;12954;50.688;10.908;2022-12-18T09:24:13;9.80;;;4.78;;
24891;SDS011;12954;50.688;10.908;2022-12-18T09:26:42;9.98;;;5.95;;
24891;SDS011;12954;50.688;10.908;2022-12-18T09:29:13;6.93;;;3.67;;
24891;SDS011;12954;50.688;10.908;2022-12-18T09:31:44;5.40;;;2.60;;
24891;SDS011;12954;50.688;10.908;2022-12-18T09:34:14;3.63;;;1.92;;
24891;SDS011;12954;50.688;10.908;2022-12-18T09:36:43;3.53;;;1.77;;
24891;SDS011;12954;50.688;10.908;2022-12-18T09:39:12;4.32;;;2.03;;
24891;SDS011;12954;50.688;10.908;2022-12-18T09:41:43;3.88;;;1.98;;
24891;SDS011;12954;50.688;10.908;2022-12-18T09:44:16;4.13;;;2.15;;
24891;SDS011;12954;50.688;10.908;2022-12-18T09:46:50;4.10;;;2.22;;
24891;SDS011;12954;50.688;10.908;2022-12-18T09:49:25;3.92;;;2.30;;
24891;SDS011;12954;50.688;10.908;2022-12-18T09:51:57;4.85;;;1.90;;
24891;SDS011;12954;50.688;10.908;2022-12-18T09:54:32;4.22;;;2.42;;
24891;SDS011;12954;50.688;10.908;2022-12-18T09:57:03;4.72;;;2.90;;
24891;SDS011;12954;50.688;10.908;2022-12-18T09:59:34;5.53;;;3.30;;
24891;SDS011;12954;50.688;10.908;2022-12-18T10:02:17;5.03;;;1.67;;
24891;SDS011;12954;50.688;10.908;2022-12-18T10:04:53;5.47;;;2.83;;
24891;SDS011;12954;50.688;10.908;2022-12-18T10:07:30;6.55;;;3.03;;
24891;SDS011;12954;50.688;10.908;2022-12-18T10:10:10;5.75;;;3.25;;
24891;SDS011;12954;50.688;10.908;2022-12-18T10:12:48;7.13;;;2.83;;
24891;SDS011;12954;50.688;10.908;2022-12-18T10:15:30;6.35;;;3.20;;
24891;SDS011;12954;50.688;10.908;2022-12-18T10:18:06;7.32;;;3.85;;
24891;SDS011;12954;50.688;10.908;2022-12-18T10:20:49;7.82;;;4.05;;
24891;SDS011;12954;50.688;10.908;2022-12-18T10:23:21;7.80;;;5.03;;
24891;SDS011;12954;50.688;10.908;2022-12-18T10:25:55;4.78;;;2.40;;
24891;SDS011;12954;50.688;10.908;2022-12-18T10:28:29;4.82;;;2.50;;
24891;SDS011;12954;50.688;10.908;2022-12-18T10:30:59;4.75;;;2.97;;
24891;SDS011;12954;50.688;10.908;2022-12-18T10:33:29;8.60;;;4.53;;
24891;SDS011;12954;50.688;10.908;2022-12-18T10:36:00;7.20;;;3.90;;
24891;SDS011;12954;50.688;10.908;2022-12-18T10:38:29;5.05;;;2.30;;
24891;SDS011;12954;50.688;10.908;2022-12-18T10:41:00;4.78;;;2.72;;
24891;SDS011;12954;50.688;10.908;2022-12-18T10:43:31;2.83;;;1.83;;
24891;SDS011;12954;50.688;10.908;2022-12-18T10:46:02;3.13;;;1.42;;
24891;SDS011;12954;50.688;10.908;2022-12-18T10:48:47;2.17;;;1.25;;
24891;SDS011;12954;50.688;10.908;2022-12-18T10:51:21;2.65;;;1.65;;
24891;SDS011;12954;50.688;10.908;2022-12-18T10:53:57;2.55;;;1.50;;
24891;SDS011;12954;50.688;10.908;2022-12-18T10:56:30;1.95;;;0.60;;
24891;SDS011;12954;50.688;10.908;2022-12-18T10:59:01;2.85;;;1.35;;
24891;SDS011;12954;50.688;10.908;2022-12-18T11:01:45;4.00;;;2.00;;
24891;SDS011;12954;50.688;10.908;2022-12-18T11:04:19;4.18;;;2.42;;
24891;SDS011;12954;50.688;10.908;2022-12-18T11:06:55;2.13;;;1.33;;
24891;SDS011;12954;50.688;10.908;2022-12-18T11:09:28;2.78;;;1.25;;
24891;SDS011;12954;50.688;10.908;2022-12-18T11:11:59;2.78;;;1.42;;
24891;SDS011;12954;50.688;10.908;2022-12-18T11:14:30;2.97;;;1.67;;
24891;SDS011;12954;50.688;10.908;2022-12-18T11:17:01;1.65;;;0.98;;
24891;SDS011;12954;50.688;10.908;2022-12-18T11:19:52;2.80;;;1.40;;
24891;SDS011;12954;50.688;10.908;2022-12-18T11:22:24;1.55;;;1.00;;
24891;SDS011;12954;50.688;10.908;2022-12-18T11:24:56;2.47;;;1.30;;
24891;SDS011;12954;50.688;10.908;2022-12-18T11:27:47;2.97;;;1.23;;
24891;SDS011;12954;50.688;10.908;2022-12-18T11:30:21;1.98;;;1.02;;
24891;SDS011;12954;50.688;10.908;2022-12-18T11:32:51;2.92;;;1.42;;
24891;SDS011;12954;50.688;10.908;2022-12-18T11:35:22;2.83;;;1.50;;
24891;SDS011;12954;50.688;10.908;2022-12-18T11:38:02;3.63;;;2.10;;
24891;SDS011;12954;50.688;10.908;2022-12-18T11:40:40;2.38;;;1.48;;
24891;SDS011;12954;50.688;10.908;2022-12-18T11:43:13;2.13;;;1.50;;
24891;SDS011;12954;50.688;10.908;2022-12-18T11:45:47;3.45;;;1.90;;
24891;SDS011;12954;50.688;10.908;2022-12-18T11:48:21;3.25;;;1.40;;
24891;SDS011;12954;50.688;10.908;2022-12-18T11:50:54;2.55;;;1.60;;
24891;SDS011;12954;50.688;10.908;2022-12-18T11:53:26;5.03;;;2.22;;
24891;SDS011;12954;50.688;10.908;2022-12-18T11:56:01;2.60;;;1.50;;
24891;SDS011;12954;50.688;10.908;2022-12-18T12:01:28;2.03;;;1.20;;
24891;SDS011;12954;50.688;10.908;2022-12-18T12:07:21;2.42;;;1.48;;
24891;SDS011;12954;50.688;10.908;2022-12-18T12:10:04;3.22;;;1.80;;
24891;SDS011;12954;50.688;10.908;2022-12-18T12:12:48;2.97;;;1.70;;
24891;SDS011;12954;50.688;10.908;2022-12-18T12:15:39;2.85;;;1.33;;
24891;SDS011;12954;50.688;10.908;2022-12-18T12:18:19;2.45;;;1.35;;
24891;SDS011;12954;50.688;10.908;2022-12-18T12:20:58;1.90;;;1.00;;
24891;SDS011;12954;50.688;10.908;2022-12-18T12:23:36;2.40;;;0.93;;
24891;SDS011;12954;50.688;10.908;2022-12-18T12:26:14;0.90;;;0.70;;
24891;SDS011;12954;50.688;10.908;2022-12-18T12:28:57;2.65;;;1.10;;
24891;SDS011;12954;50.688;10.908;2022-12-18T12:31:49;2.03;;;1.10;;
24891;SDS011;12954;50.688;10.908;2022-12-18T12:34:26;1.40;;;0.80;;
24891;SDS011;12954;50.688;10.908;2022-12-18T12:37:06;1.65;;;0.90;;
24891;SDS011;12954;50.688;10.908;2022-12-18T12:39:42;2.35;;;1.20;;
24891;SDS011;12954;50.688;10.908;2022-12-18T12:42:17;2.22;;;1.50;;
24891;SDS011;12954;50.688;10.908;2022-12-18T12:45:13;2.55;;;1.42;;
24891;SDS011;12954;50.688;10.908;2022-12-18T12:47:44;2.47;;;1.40;;
24891;SDS011;12954;50.688;10.908;2022-12-18T12:50:16;2.00;;;1.38;;
24891;SDS011;12954;50.688;10.908;2022-12-18T12:52:48;3.17;;;1.40;;
24891;SDS011;12954;50.688;10.908;2022-12-18T12:55:21;2.60;;;1.55;;
24891;SDS011;12954;50.688;10.908;2022-12-18T12:57:57;5.55;;;2.45;;
24891;SDS011;12954;50.688;10.908;2022-12-18T13:00:35;3.63;;;2.15;;
24891;SDS011;12954;50.688;10.908;2022-12-18T13:03:08;3.20;;;1.60;;
24891;SDS011;12954;50.688;10.908;2022-12-18T13:05:44;4.43;;;2.28;;
24891;SDS011;12954;50.688;10.908;2022-12-18T13:08:22;2.72;;;1.55;;
24891;SDS011;12954;50.688;10.908;2022-12-18T13:10:53;2.47;;;1.65;;
24891;SDS011;12954;50.688;10.908;2022-12-18T13:14:12;2.28;;;1.40;;
24891;SDS011;12954;50.688;10.908;2022-12-18T13:16:49;3.58;;;1.75;;
24891;SDS011;12954;50.688;10.908;2022-12-18T13:19:21;2.35;;;1.40;;
24891;SDS011;12954;50.688;10.908;2022-12-18T13:21:52;1.80;;;0.80;;
24891;SDS011;12954;50.688;10.908;2022-12-18T13:24:23;1.73;;;1.08;;
24891;SDS011;12954;50.688;10.908;2022-12-18T13:26:54;2.38;;;1.42;;
24891;SDS011;12954;50.688;10.908;2022-12-18T13:29:43;2.50;;;1.40;;
24891;SDS011;12954;50.688;10.908;2022-12-18T13:32:20;3.05;;;1.58;;
24891;SDS011;12954;50.688;10.908;2022-12-18T13:37:51;7.35;;;3.67;;
24891;SDS011;12954;50.688;10.908;2022-12-18T13:43:29;2.00;;;1.07;;
24891;SDS011;12954;50.688;10.908;2022-12-18T13:46:16;1.77;;;1.20;;
24891;SDS011;12954;50.688;10.908;2022-12-18T13:48:49;1.90;;;1.42;;
24891;SDS011;12954;50.688;10.908;2022-12-18T13:51:21;2.10;;;0.90;;
24891;SDS011;12954;50.688;10.908;2022-12-18T13:53:52;2.13;;;0.85;;
24891;SDS011;12954;50.688;10.908;2022-12-18T13:56:24;1.17;;;0.80;;
24891;SDS011;12954;50.688;10.908;2022-12-18T13:59:10;2.08;;;0.95;;
24891;SDS011;12954;50.688;10.908;2022-12-18T14:01:44;1.33;;;0.82;;
24891;SDS011;12954;50.688;10.908;2022-12-18T14:04:18;2.03;;;0.98;;
24891;SDS011;12954;50.688;10.908;2022-12-18T14:06:50;3.65;;;1.70;;
24891;SDS011;12954;50.688;10.908;2022-12-18T14:09:23;1.83;;;1.27;;
24891;SDS011;12954;50.688;10.908;2022-12-18T14:14:45;4.30;;;1.42;;
24891;SDS011;12954;50.688;10.908;2022-12-18T14:17:19;4.78;;;2.70;;
24891;SDS011;12954;50.688;10.908;2022-12-18T14:19:49;2.05;;;1.30;;
24891;SDS011;12954;50.688;10.908;2022-12-18T14:22:19;3.00;;;1.77;;
24891;SDS011;12954;50.688;10.908;2022-12-18T14:25:04;3.00;;;1.30;;
24891;SDS011;12954;50.688;10.908;2022-12-18T14:27:42;2.08;;;1.10;;
24891;SDS011;12954;50.688;10.908;2022-12-18T14:30:27;1.15;;;0.77;;
24891;SDS011;12954;50.688;10.908;2022-12-18T14:33:04;7.22;;;1.33;;
24891;SDS011;12954;50.688;10.908;2022-12-18T14:35:35;1.85;;;1.20;;
24891;SDS011;12954;50.688;10.908;2022-12-18T14:38:20;3.03;;;1.58;;
24891;SDS011;12954;50.688;10.908;2022-12-18T14:40:57;4.07;;;2.50;;
24891;SDS011;12954;50.688;10.908;2022-12-18T14:43:27;5.20;;;2.42;;
24891;SDS011;12954;50.688;10.908;2022-12-18T14:45:56;1.80;;;1.27;;
24891;SDS011;12954;50.688;10.908;2022-12-18T14:48:37;4.43;;;1.50;;
24891;SDS011;12954;50.688;10.908;2022-12-18T14:51:14;2.55;;;1.27;;
24891;SDS011;12954;50.688;10.908;2022-12-18T14:53:46;1.30;;;1.02;;
24891;SDS011;12954;50.688;10.908;2022-12-18T14:56:21;3.22;;;1.45;;
24891;SDS011;12954;50.688;10.908;2022-12-18T14:58:51;3.10;;;1.00;;
24891;SDS011;12954;50.688;10.908;2022-12-18T15:01:23;2.33;;;1.30;;
24891;SDS011;12954;50.688;10.908;2022-12-18T15:03:57;2.38;;;1.00;;
24891;SDS011;12954;50.688;10.908;2022-12-18T15:06:28;2.80;;;1.70;;
24891;SDS011;12954;50.688;10.908;2022-12-18T15:09:00;3.87;;;2.00;;
24891;SDS011;12954;50.688;10.908;2022-12-18T15:11:34;2.38;;;1.20;;
24891;SDS011;12954;50.688;10.908;2022-12-18T15:17:03;2.35;;;0.95;;
24891;SDS011;12954;50.688;10.908;2022-12-18T15:19:37;1.67;;;1.00;;